sensor_id;sensor_type;location;lat;lon;timestamp;temperature;humidity
49679;DHT22;35570;48.218;16.326;2023-03-01T00:57:52;2.60;68.60
49679;DHT22;35570;48.218;16.326;2023-03-01T01:54:56;3.00;67.90
49679;DHT22;35570;48.218;16.326;2023-03-01T06:21:57;3.50;66.80
49679;DHT22;35570;48.218;16.326;2023-03-01T06:45:03;3.80;67.20
49679;DHT22;35570;48.218;16.326;2023-03-01T06:47:30;3.80;67.70
49679;DHT22;35570;48.218;16.326;2023-03-01T06:49:55;3.80;66.20
49679;DHT22;35570;48.218;16.326;2023-03-01T06:52:21;4.00;66.70
49679;DHT22;35570;48.218;16.326;2023-03-01T06:54:47;4.00;66.40
49679;DHT22;35570;48.218;16.326;2023-03-01T06:57:12;4.00;67.40
49679;DHT22;35570;48.218;16.326;2023-03-01T06:59:38;4.00;67.30
49679;DHT22;35570;48.218;16.326;2023-03-01T07:02:03;4.00;67.30
49679;DHT22;35570;48.218;16.326;2023-03-01T07:04:29;4.10;67.60
49679;DHT22;35570;48.218;16.326;2023-03-01T07:06:56;4.10;67.20
49679;DHT22;35570;48.218;16.326;2023-03-01T07:09:22;4.20;65.90
49679;DHT22;35570;48.218;16.326;2023-03-01T07:11:48;4.10;66.70
49679;DHT22;35570;48.218;16.326;2023-03-01T07:14:15;4.10;66.40
49679;DHT22;35570;48.218;16.326;2023-03-01T07:16:42;4.10;67.10
49679;DHT22;35570;48.218;16.326;2023-03-01T07:19:07;4.10;67.60
49679;DHT22;35570;48.218;16.326;2023-03-01T07:21:33;4.20;66.80
49679;DHT22;35570;48.218;16.326;2023-03-01T07:23:59;4.20;66.60
49679;DHT22;35570;48.218;16.326;2023-03-01T07:26:25;4.20;67.30
49679;DHT22;35570;48.218;16.326;2023-03-01T07:28:51;4.20;67.20
49679;DHT22;35570;48.218;16.326;2023-03-01T07:31:17;4.20;66.80
49679;DHT22;35570;48.218;16.326;2023-03-01T07:33:49;4.30;65.50
49679;DHT22;35570;48.218;16.326;2023-03-01T07:36:15;4.30;65.20
49679;DHT22;35570;48.218;16.326;2023-03-01T07:38:41;4.40;66.20
49679;DHT22;35570;48.218;16.326;2023-03-01T07:41:07;4.40;66.60
49679;DHT22;35570;48.218;16.326;2023-03-01T07:43:34;4.50;65.30
49679;DHT22;35570;48.218;16.326;2023-03-01T07:46:01;4.50;67.10
49679;DHT22;35570;48.218;16.326;2023-03-01T07:48:28;3.40;64.60
49679;DHT22;35570;48.218;16.326;2023-03-01T07:50:54;4.50;66.60
49679;DHT22;35570;48.218;16.326;2023-03-01T07:53:20;4.70;65.80
49679;DHT22;35570;48.218;16.326;2023-03-01T07:55:46;4.60;64.80
49679;DHT22;35570;48.218;16.326;2023-03-01T07:58:12;4.60;65.80
49679;DHT22;35570;48.218;16.326;2023-03-01T08:00:38;2.70;64.10
49679;DHT22;35570;48.218;16.326;2023-03-01T08:03:04;4.70;64.60
49679;DHT22;35570;48.218;16.326;2023-03-01T08:05:30;4.90;65.10
49679;DHT22;35570;48.218;16.326;2023-03-01T08:07:56;5.00;64.70
49679;DHT22;35570;48.218;16.326;2023-03-01T08:10:22;5.00;64.80
49679;DHT22;35570;48.218;16.326;2023-03-01T08:12:52;5.10;64.60
49679;DHT22;35570;48.218;16.326;2023-03-01T08:15:28;5.20;65.30
49679;DHT22;35570;48.218;16.326;2023-03-01T08:17:54;5.10;64.60
49679;DHT22;35570;48.218;16.326;2023-03-01T08:20:20;5.10;63.20
49679;DHT22;35570;48.218;16.326;2023-03-01T08:22:46;5.00;64.20
49679;DHT22;35570;48.218;16.326;2023-03-01T08:25:12;4.80;64.80
49679;DHT22;35570;48.218;16.326;2023-03-01T08:27:38;4.90;63.30
49679;DHT22;35570;48.218;16.326;2023-03-01T08:30:04;4.90;64.20
49679;DHT22;35570;48.218;16.326;2023-03-01T08:32:36;5.00;63.00
49679;DHT22;35570;48.218;16.326;2023-03-01T08:35:02;5.00;65.40
49679;DHT22;35570;48.218;16.326;2023-03-01T08:37:30;3.80;62.70
49679;DHT22;35570;48.218;16.326;2023-03-01T08:39:59;5.20;63.70
49679;DHT22;35570;48.218;16.326;2023-03-01T08:42:26;7.00;64.00
49679;DHT22;35570;48.218;16.326;2023-03-01T08:44:52;5.30;63.40
49679;DHT22;35570;48.218;16.326;2023-03-01T08:47:18;5.70;64.70
49679;DHT22;35570;48.218;16.326;2023-03-01T08:49:44;6.00;62.80
49679;DHT22;35570;48.218;16.326;2023-03-01T08:52:10;6.40;61.00
49679;DHT22;35570;48.218;16.326;2023-03-01T08:54:36;6.70;60.90
49679;DHT22;35570;48.218;16.326;2023-03-01T08:57:02;7.00;60.30
49679;DHT22;35570;48.218;16.326;2023-03-01T08:59:28;7.10;58.80
49679;DHT22;35570;48.218;16.326;2023-03-01T09:01:55;7.10;59.40
49679;DHT22;35570;48.218;16.326;2023-03-01T09:09:32;7.40;61.00
49679;DHT22;35570;48.218;16.326;2023-03-01T09:11:58;7.80;61.50
49679;DHT22;35570;48.218;16.326;2023-03-01T09:14:24;8.10;58.90
49679;DHT22;35570;48.218;16.326;2023-03-01T09:16:50;8.10;56.70
49679;DHT22;35570;48.218;16.326;2023-03-01T09:19:17;8.10;58.50
49679;DHT22;35570;48.218;16.326;2023-03-01T09:21:42;8.10;56.60
49679;DHT22;35570;48.218;16.326;2023-03-01T09:24:18;7.90;54.80
49679;DHT22;35570;48.218;16.326;2023-03-01T09:26:45;7.70;55.40
49679;DHT22;35570;48.218;16.326;2023-03-01T09:29:12;8.00;55.30
49679;DHT22;35570;48.218;16.326;2023-03-01T09:31:38;8.10;57.40
49679;DHT22;35570;48.218;16.326;2023-03-01T09:34:05;8.60;57.80
49679;DHT22;35570;48.218;16.326;2023-03-01T09:36:31;8.90;57.00
49679;DHT22;35570;48.218;16.326;2023-03-01T09:38:58;9.70;55.20
49679;DHT22;35570;48.218;16.326;2023-03-01T09:41:53;8.30;50.50
49679;DHT22;35570;48.218;16.326;2023-03-01T09:44:40;9.20;52.60
49679;DHT22;35570;48.218;16.326;2023-03-01T09:47:16;9.00;53.60
49679;DHT22;35570;48.218;16.326;2023-03-01T09:49:48;8.60;52.60
49679;DHT22;35570;48.218;16.326;2023-03-01T09:52:40;8.40;56.30
49679;DHT22;35570;48.218;16.326;2023-03-01T09:57:53;8.20;55.70
49679;DHT22;35570;48.218;16.326;2023-03-01T10:00:33;8.20;54.50
49679;DHT22;35570;48.218;16.326;2023-03-01T10:03:34;7.80;56.00
49679;DHT22;35570;48.218;16.326;2023-03-01T10:06:18;7.60;56.50
49679;DHT22;35570;48.218;16.326;2023-03-01T10:08:53;7.60;58.50
49679;DHT22;35570;48.218;16.326;2023-03-01T10:11:23;7.60;57.10
49679;DHT22;35570;48.218;16.326;2023-03-01T10:16:52;7.70;57.80
49679;DHT22;35570;48.218;16.326;2023-03-01T10:22:04;7.70;58.20
49679;DHT22;35570;48.218;16.326;2023-03-01T10:24:41;7.60;55.90
49679;DHT22;35570;48.218;16.326;2023-03-01T10:27:23;7.60;56.60
49679;DHT22;35570;48.218;16.326;2023-03-01T10:30:09;7.50;56.80
49679;DHT22;35570;48.218;16.326;2023-03-01T10:32:37;7.50;57.80
49679;DHT22;35570;48.218;16.326;2023-03-01T10:35:35;7.50;56.90
49679;DHT22;35570;48.218;16.326;2023-03-01T10:38:15;6.70;56.60
49679;DHT22;35570;48.218;16.326;2023-03-01T10:40:56;8.30;55.00
49679;DHT22;35570;48.218;16.326;2023-03-01T10:43:28;9.20;56.70
49679;DHT22;35570;48.218;16.326;2023-03-01T10:45:57;10.40;51.60
49679;DHT22;35570;48.218;16.326;2023-03-01T10:48:25;11.90;48.60
49679;DHT22;35570;48.218;16.326;2023-03-01T10:51:15;11.60;47.00
49679;DHT22;35570;48.218;16.326;2023-03-01T10:53:48;11.00;47.60
49679;DHT22;35570;48.218;16.326;2023-03-01T10:56:17;10.80;49.80
49679;DHT22;35570;48.218;16.326;2023-03-01T10:59:01;10.70;50.10
49679;DHT22;35570;48.218;16.326;2023-03-01T11:01:30;10.90;50.00
49679;DHT22;35570;48.218;16.326;2023-03-01T11:06:36;10.10;47.70
49679;DHT22;35570;48.218;16.326;2023-03-01T11:09:24;11.30;48.80
49679;DHT22;35570;48.218;16.326;2023-03-01T11:11:57;11.20;49.30
49679;DHT22;35570;48.218;16.326;2023-03-01T11:14:46;12.70;49.90
49679;DHT22;35570;48.218;16.326;2023-03-01T11:17:23;11.30;49.70
49679;DHT22;35570;48.218;16.326;2023-03-01T11:22:33;10.20;48.70
49679;DHT22;35570;48.218;16.326;2023-03-01T11:25:00;9.70;48.50
49679;DHT22;35570;48.218;16.326;2023-03-01T11:27:31;10.90;48.90
49679;DHT22;35570;48.218;16.326;2023-03-01T11:32:42;10.70;50.20
49679;DHT22;35570;48.218;16.326;2023-03-01T11:43:26;11.00;51.00
49679;DHT22;35570;48.218;16.326;2023-03-01T11:49:08;10.70;51.40
49679;DHT22;35570;48.218;16.326;2023-03-01T11:51:50;9.70;50.30
49679;DHT22;35570;48.218;16.326;2023-03-01T12:03:16;10.30;53.30
49679;DHT22;35570;48.218;16.326;2023-03-01T12:06:20;10.10;51.50
49679;DHT22;35570;48.218;16.326;2023-03-01T12:09:16;9.90;53.50
49679;DHT22;35570;48.218;16.326;2023-03-01T12:22:44;9.60;54.90
49679;DHT22;35570;48.218;16.326;2023-03-01T12:49:45;10.60;52.30
49679;DHT22;35570;48.218;16.326;2023-03-01T12:55:18;10.10;54.40
49679;DHT22;35570;48.218;16.326;2023-03-01T13:06:29;11.10;52.50
49679;DHT22;35570;48.218;16.326;2023-03-01T13:11:43;12.40;50.40
49679;DHT22;35570;48.218;16.326;2023-03-01T13:16:49;14.30;47.70
49679;DHT22;35570;48.218;16.326;2023-03-01T13:19:18;15.00;47.50
49679;DHT22;35570;48.218;16.326;2023-03-01T13:21:46;15.10;44.70
49679;DHT22;35570;48.218;16.326;2023-03-01T13:24:39;15.00;45.20
49679;DHT22;35570;48.218;16.326;2023-03-01T13:29:44;15.00;47.00
49679;DHT22;35570;48.218;16.326;2023-03-01T13:32:23;13.50;47.80
49679;DHT22;35570;48.218;16.326;2023-03-01T13:34:55;13.10;48.40
49679;DHT22;35570;48.218;16.326;2023-03-01T13:37:24;13.00;49.30
49679;DHT22;35570;48.218;16.326;2023-03-01T13:39:51;12.90;48.90
49679;DHT22;35570;48.218;16.326;2023-03-01T13:42:34;13.20;48.60
49679;DHT22;35570;48.218;16.326;2023-03-01T13:45:23;13.80;48.70
49679;DHT22;35570;48.218;16.326;2023-03-01T13:47:57;14.20;47.50
49679;DHT22;35570;48.218;16.326;2023-03-01T13:50:28;14.10;47.60
49679;DHT22;35570;48.218;16.326;2023-03-01T13:53:04;14.10;47.00
49679;DHT22;35570;48.218;16.326;2023-03-01T13:58:33;13.60;47.10
49679;DHT22;35570;48.218;16.326;2023-03-01T14:01:22;13.50;48.50
49679;DHT22;35570;48.218;16.326;2023-03-01T14:03:47;13.20;47.90
49679;DHT22;35570;48.218;16.326;2023-03-01T14:06:20;13.20;50.00
49679;DHT22;35570;48.218;16.326;2023-03-01T14:08:49;13.30;48.70
49679;DHT22;35570;48.218;16.326;2023-03-01T14:11:25;13.50;48.40
49679;DHT22;35570;48.218;16.326;2023-03-01T14:19:28;14.90;46.50
49679;DHT22;35570;48.218;16.326;2023-03-01T14:22:19;15.40;46.80
49679;DHT22;35570;48.218;16.326;2023-03-01T14:24:50;15.50;45.60
49679;DHT22;35570;48.218;16.326;2023-03-01T14:27:16;15.60;44.50
49679;DHT22;35570;48.218;16.326;2023-03-01T14:29:42;15.70;45.00
49679;DHT22;35570;48.218;16.326;2023-03-01T14:32:10;15.80;44.90
49679;DHT22;35570;48.218;16.326;2023-03-01T14:34:36;15.80;44.80
49679;DHT22;35570;48.218;16.326;2023-03-01T14:37:33;15.70;45.10
49679;DHT22;35570;48.218;16.326;2023-03-01T14:39:58;15.50;45.90
49679;DHT22;35570;48.218;16.326;2023-03-01T14:42:28;15.20;45.40
49679;DHT22;35570;48.218;16.326;2023-03-01T14:44:56;15.10;46.10
49679;DHT22;35570;48.218;16.326;2023-03-01T14:47:28;15.00;46.00
49679;DHT22;35570;48.218;16.326;2023-03-01T14:52:42;14.60;46.30
49679;DHT22;35570;48.218;16.326;2023-03-01T14:55:35;14.20;47.20
49679;DHT22;35570;48.218;16.326;2023-03-01T14:58:09;13.80;48.10
49679;DHT22;35570;48.218;16.326;2023-03-01T15:00:37;13.40;49.10
49679;DHT22;35570;48.218;16.326;2023-03-01T15:03:35;13.00;49.80
49679;DHT22;35570;48.218;16.326;2023-03-01T15:06:06;12.70;50.50
49679;DHT22;35570;48.218;16.326;2023-03-01T15:08:32;12.20;51.00
49679;DHT22;35570;48.218;16.326;2023-03-01T15:11:23;11.90;52.10
49679;DHT22;35570;48.218;16.326;2023-03-01T15:13:51;11.60;52.70
49679;DHT22;35570;48.218;16.326;2023-03-01T15:16:21;11.30;53.70
49679;DHT22;35570;48.218;16.326;2023-03-01T15:21:33;11.00;54.50
49679;DHT22;35570;48.218;16.326;2023-03-01T15:24:06;10.90;55.00
49679;DHT22;35570;48.218;16.326;2023-03-01T15:29:20;10.50;56.60
49679;DHT22;35570;48.218;16.326;2023-03-01T15:31:57;10.40;57.50
49679;DHT22;35570;48.218;16.326;2023-03-01T15:34:29;10.30;57.40
49679;DHT22;35570;48.218;16.326;2023-03-01T15:36:57;10.20;57.10
49679;DHT22;35570;48.218;16.326;2023-03-01T15:39:37;10.20;57.30
49679;DHT22;35570;48.218;16.326;2023-03-01T15:42:11;10.10;57.10
49679;DHT22;35570;48.218;16.326;2023-03-01T15:44:39;10.10;57.30
49679;DHT22;35570;48.218;16.326;2023-03-01T15:49:51;9.90;58.00
49679;DHT22;35570;48.218;16.326;2023-03-01T15:52:35;9.80;57.80
49679;DHT22;35570;48.218;16.326;2023-03-01T15:55:14;9.70;58.50
49679;DHT22;35570;48.218;16.326;2023-03-01T15:57:40;9.70;59.20
49679;DHT22;35570;48.218;16.326;2023-03-01T16:00:09;9.70;58.80
49679;DHT22;35570;48.218;16.326;2023-03-01T16:02:39;9.70;58.60
49679;DHT22;35570;48.218;16.326;2023-03-01T16:05:09;9.60;58.30
49679;DHT22;35570;48.218;16.326;2023-03-01T16:07:39;9.40;58.20
49679;DHT22;35570;48.218;16.326;2023-03-01T16:10:05;9.40;59.30
49679;DHT22;35570;48.218;16.326;2023-03-01T16:12:31;9.30;60.10
49679;DHT22;35570;48.218;16.326;2023-03-01T16:14:57;9.20;59.10
49679;DHT22;35570;48.218;16.326;2023-03-01T16:17:23;9.20;60.20
49679;DHT22;35570;48.218;16.326;2023-03-01T16:19:48;9.10;59.50
49679;DHT22;35570;48.218;16.326;2023-03-01T16:22:14;9.10;59.50
49679;DHT22;35570;48.218;16.326;2023-03-01T16:24:40;9.00;59.50
49679;DHT22;35570;48.218;16.326;2023-03-01T16:27:06;9.00;59.50
49679;DHT22;35570;48.218;16.326;2023-03-01T16:29:32;8.90;60.20
49679;DHT22;35570;48.218;16.326;2023-03-01T16:32:01;8.90;60.50
49679;DHT22;35570;48.218;16.326;2023-03-01T16:34:27;8.80;60.00
49679;DHT22;35570;48.218;16.326;2023-03-01T16:36:53;8.70;60.00
49679;DHT22;35570;48.218;16.326;2023-03-01T16:39:19;8.70;60.30
49679;DHT22;35570;48.218;16.326;2023-03-01T16:41:44;8.70;60.50
49679;DHT22;35570;48.218;16.326;2023-03-01T16:44:10;8.70;60.50
49679;DHT22;35570;48.218;16.326;2023-03-01T16:46:36;8.70;61.50
49679;DHT22;35570;48.218;16.326;2023-03-01T16:49:03;8.70;61.70
49679;DHT22;35570;48.218;16.326;2023-03-01T16:51:29;8.70;60.60
49679;DHT22;35570;48.218;16.326;2023-03-01T16:53:55;8.60;61.10
49679;DHT22;35570;48.218;16.326;2023-03-01T16:56:21;8.60;60.50
49679;DHT22;35570;48.218;16.326;2023-03-01T16:58:47;8.60;61.40
49679;DHT22;35570;48.218;16.326;2023-03-01T17:01:18;9.90;63.00
49679;DHT22;35570;48.218;16.326;2023-03-01T17:03:49;8.50;60.60
49679;DHT22;35570;48.218;16.326;2023-03-01T17:06:18;8.50;60.40
49679;DHT22;35570;48.218;16.326;2023-03-01T17:08:46;8.50;60.70
49679;DHT22;35570;48.218;16.326;2023-03-01T17:11:16;8.50;61.30
49679;DHT22;35570;48.218;16.326;2023-03-01T17:13:43;8.50;60.60
49679;DHT22;35570;48.218;16.326;2023-03-01T17:16:12;8.40;60.60
49679;DHT22;35570;48.218;16.326;2023-03-01T17:18:38;8.40;60.50
49679;DHT22;35570;48.218;16.326;2023-03-01T17:21:05;8.40;61.20
49679;DHT22;35570;48.218;16.326;2023-03-01T17:23:33;8.30;60.80
49679;DHT22;35570;48.218;16.326;2023-03-01T17:26:00;8.40;61.40
49679;DHT22;35570;48.218;16.326;2023-03-01T17:28:28;8.30;61.30
49679;DHT22;35570;48.218;16.326;2023-03-01T17:30:55;8.20;61.60
49679;DHT22;35570;48.218;16.326;2023-03-01T17:33:21;8.20;61.30
49679;DHT22;35570;48.218;16.326;2023-03-01T17:35:48;8.20;61.60
49679;DHT22;35570;48.218;16.326;2023-03-01T17:38:15;8.10;62.10
49679;DHT22;35570;48.218;16.326;2023-03-01T17:40:44;8.20;62.00
49679;DHT22;35570;48.218;16.326;2023-03-01T17:43:14;8.10;62.30
49679;DHT22;35570;48.218;16.326;2023-03-01T17:45:41;8.10;63.00
49679;DHT22;35570;48.218;16.326;2023-03-01T17:48:10;8.00;63.60
49679;DHT22;35570;48.218;16.326;2023-03-01T17:50:37;7.90;63.20
49679;DHT22;35570;48.218;16.326;2023-03-01T17:53:05;8.00;63.40
49679;DHT22;35570;48.218;16.326;2023-03-01T17:55:35;7.90;63.50
49679;DHT22;35570;48.218;16.326;2023-03-01T17:58:03;7.90;62.90
49679;DHT22;35570;48.218;16.326;2023-03-01T18:00:29;7.90;62.90
49679;DHT22;35570;48.218;16.326;2023-03-01T18:02:55;7.90;63.40
49679;DHT22;35570;48.218;16.326;2023-03-01T18:05:24;7.80;63.90
49679;DHT22;35570;48.218;16.326;2023-03-01T18:07:51;7.60;63.70
49679;DHT22;35570;48.218;16.326;2023-03-01T18:10:18;7.60;63.90
49679;DHT22;35570;48.218;16.326;2023-03-01T18:12:45;7.60;64.00
49679;DHT22;35570;48.218;16.326;2023-03-01T18:15:12;7.50;64.80
49679;DHT22;35570;48.218;16.326;2023-03-01T18:17:39;7.40;64.80
49679;DHT22;35570;48.218;16.326;2023-03-01T18:20:06;7.40;65.00
49679;DHT22;35570;48.218;16.326;2023-03-01T18:22:33;6.00;65.00
49679;DHT22;35570;48.218;16.326;2023-03-01T18:24:59;7.30;65.50
49679;DHT22;35570;48.218;16.326;2023-03-01T18:27:25;7.20;65.70
49679;DHT22;35570;48.218;16.326;2023-03-01T18:29:51;7.10;66.60
49679;DHT22;35570;48.218;16.326;2023-03-01T18:32:18;6.60;66.60
49679;DHT22;35570;48.218;16.326;2023-03-01T18:34:44;7.20;66.70
49679;DHT22;35570;48.218;16.326;2023-03-01T19:20:11;6.60;70.00
49679;DHT22;35570;48.218;16.326;2023-03-01T19:22:43;6.40;69.60
49679;DHT22;35570;48.218;16.326;2023-03-01T19:25:11;6.40;69.80
49679;DHT22;35570;48.218;16.326;2023-03-01T19:27:39;6.50;70.30
49679;DHT22;35570;48.218;16.326;2023-03-01T19:30:07;6.40;69.80
49679;DHT22;35570;48.218;16.326;2023-03-01T19:32:33;6.40;69.80
49679;DHT22;35570;48.218;16.326;2023-03-01T19:37:35;6.30;70.10
49679;DHT22;35570;48.218;16.326;2023-03-01T19:42:37;6.20;70.60
49679;DHT22;35570;48.218;16.326;2023-03-01T19:55:44;6.20;70.10
49679;DHT22;35570;48.218;16.326;2023-03-01T19:58:29;6.10;70.10
49679;DHT22;35570;48.218;16.326;2023-03-01T20:57:53;6.00;71.50
49679;DHT22;35570;48.218;16.326;2023-03-01T21:00:19;5.90;71.40
49679;DHT22;35570;48.218;16.326;2023-03-01T21:02:46;6.00;71.20
49679;DHT22;35570;48.218;16.326;2023-03-01T21:05:12;6.00;70.50
49679;DHT22;35570;48.218;16.326;2023-03-01T21:07:38;6.00;70.50
49679;DHT22;35570;48.218;16.326;2023-03-01T21:10:04;4.10;69.50
49679;DHT22;35570;48.218;16.326;2023-03-01T21:35:48;5.90;70.60
49679;DHT22;35570;48.218;16.326;2023-03-01T21:38:39;5.90;70.50
49679;DHT22;35570;48.218;16.326;2023-03-01T21:41:17;6.00;70.20
49679;DHT22;35570;48.218;16.326;2023-03-01T21:43:47;5.90;69.80
49679;DHT22;35570;48.218;16.326;2023-03-01T21:51:39;6.00;70.10
49679;DHT22;35570;48.218;16.326;2023-03-01T21:54:08;5.90;69.90
49679;DHT22;35570;48.218;16.326;2023-03-01T21:56:35;6.10;69.50
49679;DHT22;35570;48.218;16.326;2023-03-01T21:59:16;6.10;69.40
49679;DHT22;35570;48.218;16.326;2023-03-01T22:01:47;6.10;70.10
49679;DHT22;35570;48.218;16.326;2023-03-01T22:04:14;6.20;69.10
49679;DHT22;35570;48.218;16.326;2023-03-01T22:06:45;6.20;70.90
49679;DHT22;35570;48.218;16.326;2023-03-01T22:11:46;6.30;69.00
49679;DHT22;35570;48.218;16.326;2023-03-01T22:14:13;6.20;69.40
49679;DHT22;35570;48.218;16.326;2023-03-01T22:16:41;6.30;68.90
49679;DHT22;35570;48.218;16.326;2023-03-01T22:19:09;6.20;70.00
49679;DHT22;35570;48.218;16.326;2023-03-01T22:21:41;6.30;69.10
49679;DHT22;35570;48.218;16.326;2023-03-01T22:24:08;6.30;69.10
49679;DHT22;35570;48.218;16.326;2023-03-01T22:26:37;6.30;69.30
49679;DHT22;35570;48.218;16.326;2023-03-01T22:29:07;6.30;69.30
49679;DHT22;35570;48.218;16.326;2023-03-01T22:31:33;6.30;68.40
49679;DHT22;35570;48.218;16.326;2023-03-01T22:34:00;6.30;68.50
49679;DHT22;35570;48.218;16.326;2023-03-01T22:36:26;6.40;68.70
49679;DHT22;35570;48.218;16.326;2023-03-01T22:38:53;6.40;68.40
49679;DHT22;35570;48.218;16.326;2023-03-01T22:41:28;6.30;67.90
49679;DHT22;35570;48.218;16.326;2023-03-01T22:43:54;6.40;67.70
49679;DHT22;35570;48.218;16.326;2023-03-01T22:46:21;6.40;67.20
49679;DHT22;35570;48.218;16.326;2023-03-01T22:48:47;5.80;66.80
49679;DHT22;35570;48.218;16.326;2023-03-01T22:51:14;6.40;67.50
49679;DHT22;35570;48.218;16.326;2023-03-01T22:53:40;6.40;67.90
49679;DHT22;35570;48.218;16.326;2023-03-01T22:56:23;6.50;66.60
49679;DHT22;35570;48.218;16.326;2023-03-01T22:58:50;6.50;66.60
49679;DHT22;35570;48.218;16.326;2023-03-01T23:01:21;6.50;66.00
49679;DHT22;35570;48.218;16.326;2023-03-01T23:03:48;6.50;66.50
49679;DHT22;35570;48.218;16.326;2023-03-01T23:06:15;6.40;66.30
49679;DHT22;35570;48.218;16.326;2023-03-01T23:08:42;6.50;66.10
49679;DHT22;35570;48.218;16.326;2023-03-01T23:11:11;6.50;66.50
49679;DHT22;35570;48.218;16.326;2023-03-01T23:13:37;6.50;66.30
49679;DHT22;35570;48.218;16.326;2023-03-01T23:16:03;6.50;66.30
49679;DHT22;35570;48.218;16.326;2023-03-01T23:18:28;6.40;65.50
49679;DHT22;35570;48.218;16.326;2023-03-01T23:20:54;6.40;66.00
49679;DHT22;35570;48.218;16.326;2023-03-01T23:23:20;6.40;65.90
49679;DHT22;35570;48.218;16.326;2023-03-01T23:25:53;6.40;65.90
49679;DHT22;35570;48.218;16.326;2023-03-01T23:28:19;6.40;66.10
49679;DHT22;35570;48.218;16.326;2023-03-01T23:30:56;6.40;66.00
49679;DHT22;35570;48.218;16.326;2023-03-01T23:33:23;6.30;66.20
49679;DHT22;35570;48.218;16.326;2023-03-01T23:35:49;6.30;66.30
49679;DHT22;35570;48.218;16.326;2023-03-01T23:38:14;6.30;66.10
49679;DHT22;35570;48.218;16.326;2023-03-01T23:40:40;6.30;65.60
49679;DHT22;35570;48.218;16.326;2023-03-01T23:43:06;6.30;65.80
49679;DHT22;35570;48.218;16.326;2023-03-01T23:45:31;6.20;65.80
49679;DHT22;35570;48.218;16.326;2023-03-01T23:47:57;6.20;66.30
49679;DHT22;35570;48.218;16.326;2023-03-01T23:50:23;6.30;66.60
49679;DHT22;35570;48.218;16.326;2023-03-01T23:52:48;6.20;66.00
49679;DHT22;35570;48.218;16.326;2023-03-01T23:55:14;6.20;65.60
49679;DHT22;35570;48.218;16.326;2023-03-01T23:57:41;6.30;67.10
